• Join FlightAware (Why Join?)
  • Login
  • US Flag 
01:53PM EDT


 

Airport Tracker/Info


-or-


 

Live Flight TrackerFlight Track Log ✈ SWA565 ✈ 08-Apr-2013 ✈ KBWI - KBNA

Flight Track Log - Related Links

Times and Time Zones

All times are in EDT time to prevent confusion due to time zone crossing. See the SWA565 flight status page for this flight to view local times or setup timezone preferences in your user account.

Time Position Orientation Groundspeed Altitude Reporting Facility
EDT Latitude Longitude Course Direction KTS MPH feet Rate Location/Type
11:09PM 39.1500 -76.6500 298° West 156 180 2,000  Level Potomac TRACON
11:11PM 39.1792 -76.7214 298° West 218 251 6,200 3,000 Climbing Washington Center
11:12PM 39.1992 -76.8047 287° West 225 259 10,200 4,140 Climbing Washington Center
11:13PM 39.2086 -76.8961 278° West 245 282 14,500 3,600 Climbing Washington Center
11:14PM 39.2117 -76.9953 272° West 262 302 17,400 2,520 Climbing Washington Center
11:15PM 39.1769 -77.1097 249° West 299 344 19,600 2,640 Climbing Washington Center
11:16PM 39.1419 -77.2322 250° West 336 387 22,800 2,760 Climbing Washington Center
11:17PM 39.1025 -77.3597 248° West 370 426 25,200 2,100 Climbing Washington Center
11:18PM 39.0653 -77.4897 250° West 390 449 27,000 1,620 Climbing Washington Center
11:19PM 39.0231 -77.6356 250° West 400 460 28,500 2,040 Climbing Washington Center
11:20PM 38.9833 -77.7681 249° West 405 466 31,100 2,520 Climbing Washington Center
11:21PM 38.9453 -77.9031 250° West 405 466 33,700 2,400 Climbing Washington Center
11:22PM 38.9075 -78.0272 249° West 400 460 36,000 1,920 Climbing Washington Center
11:23PM 38.8694 -78.1486 248° West 385 443 37,600 960 Climbing Washington Center
11:24PM 38.8500 -78.2758 259° West 378 435 38,000 840 Climbing Washington Center
11:25PM 38.8494 -78.4011 270° West 366 421 39,300 960 Climbing Washington Center
11:26PM 38.8361 -78.5231 262° West 360 414 40,000 300 Climbing Washington Center
11:27PM 38.8183 -78.6503 260° West 360 414 40,000  Level Washington Center
11:28PM 38.8003 -78.7803 260° West 370 426 40,000  Level Washington Center
11:29PM 38.7822 -78.9072 260° West 370 426 40,000  Level Washington Center
11:30PM 38.7661 -79.0369 261° West 370 426 40,000  Level Washington Center
11:31PM 38.7456 -79.1664 259° West 370 426 40,000  Level Washington Center
11:32PM 38.7378 -79.2886 265° West 370 426 40,000  Level Washington Center
11:33PM 38.7144 -79.4311 258° West 375 432 40,000  Level Washington Center
11:34PM 38.6978 -79.5606 261° West 375 432 40,000  Level Washington Center
11:35PM 38.6767 -79.6922 258° West 375 432 40,000  Level Washington Center
11:36PM 38.6603 -79.8083 260° West 375 432 40,000  Level Washington Center
11:37PM 38.6408 -79.9378 259° West 375 432 40,000  Level Washington Center
11:38PM 38.6217 -80.0667 259° West 375 432 40,000  Level Washington Center
11:39PM 38.6022 -80.1958 259° West 375 432 40,000  Level Washington Center
11:41PM 38.5633 -80.4300 258° West 368 423 40,000  Level Indianapolis Center
11:42PM 38.5414 -80.5653 258° West 365 420 40,000  Level Indianapolis Center
11:43PM 38.5203 -80.6936 258° West 369 425 40,000  Level Indianapolis Center
11:44PM 38.4892 -80.8206 253° West 374 430 40,000  Level Indianapolis Center
11:45PM 38.4597 -80.9464 253° West 370 426 40,000  Level Indianapolis Center
11:46PM 38.4306 -81.0733 254° West 370 426 40,000  Level Indianapolis Center
11:47PM 38.4006 -81.1989 253° West 368 423 40,000  Level Indianapolis Center
11:48PM 38.3703 -81.3264 253° West 372 428 40,000  Level Indianapolis Center
11:49PM 38.3400 -81.4519 253° West 368 423 40,000  Level Indianapolis Center
11:50PM 38.3100 -81.5794 253° West 372 428 40,000  Level Indianapolis Center
11:51PM 38.2797 -81.7036 253° West 367 422 40,000  Level Indianapolis Center
11:52PM 38.2492 -81.8286 253° West 368 423 40,000  Level Indianapolis Center
11:53PM 38.2181 -81.9522 252° West 366 421 40,000  Level Indianapolis Center
11:54PM 38.1886 -82.0761 253° West 365 420 40,000  Level Indianapolis Center
11:55PM 38.1581 -82.2000 253° West 367 422 40,000  Level Indianapolis Center
11:56PM 38.1264 -82.3261 252° West 372 428 40,000  Level Indianapolis Center
11:57PM 38.0917 -82.4678 253° West 369 425 40,000  Level Indianapolis Center
11:58PM 38.0597 -82.5922 252° West 371 427 40,000  Level Indianapolis Center
11:59PM 38.0294 -82.7161 253° West 369 425 40,000  Level Indianapolis Center
12:00AM 37.9983 -82.8403 252° West 369 425 40,000  Level Indianapolis Center
12:01AM 37.9519 -82.9572 243° Southwest 372 428 40,000  Level Indianapolis Center
12:02AM 37.8975 -83.0753 240° Southwest 383 441 40,000  Level Indianapolis Center
12:03AM 37.8425 -83.1906 239° Southwest 384 442 40,000  Level Indianapolis Center
12:04AM 37.7772 -83.3250 238° Southwest 386 444 40,000  Level Indianapolis Center
12:05AM 37.7222 -83.4411 239° Southwest 385 443 40,000  Level Indianapolis Center
12:06AM 37.6658 -83.5583 239° Southwest 390 449 40,000  Level Indianapolis Center
12:07AM 37.6097 -83.6733 238° Southwest 387 445 40,000  Level Indianapolis Center
12:08AM 37.5542 -83.7886 239° Southwest 385 443 40,000  Level Indianapolis Center
12:09AM 37.4989 -83.9033 239° Southwest 384 442 40,000  Level Indianapolis Center
12:10AM 37.4422 -84.0167 238° Southwest 382 440 40,000  Level Indianapolis Center
12:11AM 37.3864 -84.1311 238° Southwest 383 441 40,000  Level Indianapolis Center
12:12AM 37.3308 -84.2450 238° Southwest 384 442 40,000  Level Indianapolis Center
12:13AM 37.2750 -84.3592 238° Southwest 383 441 40,000  Level Indianapolis Center
12:14AM 37.2183 -84.4725 238° Southwest 384 442 40,000 -300 Level Indianapolis Center
12:15AM 37.1619 -84.5858 238° Southwest 384 442 39,400 -1,020 Descending Indianapolis Center
12:16AM 37.1042 -84.7017 238° Southwest 389 448 38,000 -2,160 Descending Indianapolis Center
12:17AM 37.0461 -84.8186 238° Southwest 394 453 35,100 -3,120 Descending Indianapolis Center
12:18AM 36.9819 -84.9453 238° Southwest 396 456 31,800 -2,820 Descending Indianapolis Center
12:19AM 36.9258 -85.0592 238° Southwest 389 448 29,400 -2,400 Descending Indianapolis Center
12:20AM 36.8700 -85.1664 237° Southwest 372 428 27,000 -2,340 Descending Indianapolis Center
12:21AM 36.8167 -85.2722 238° Southwest 363 418 24,700 -2,280 Descending Indianapolis Center
12:22AM 36.7653 -85.3753 238° Southwest 354 407 22,500 -1,380 Descending Indianapolis Center
12:23AM 36.7156 -85.4764 238° Southwest 345 397 22,000 -1,200 Descending Indianapolis Center
12:24AM 36.6669 -85.5842 241° Southwest 349 402 20,100 -2,040 Descending Memphis Center
12:25AM 36.6144 -85.6831 237° Southwest 349 402 18,000 -2,100 Descending Memphis Center
12:26AM 36.5703 -85.7811 241° Southwest 344 396 16,000 -2,160 Descending Memphis Center
12:27AM 36.5297 -85.8714 241° Southwest 322 371 13,700 -2,220 Descending Memphis Center
12:28AM 36.4833 -85.9694 240° Southwest 322 371 11,600 -1,800 Descending Memphis Center
12:29AM 36.4425 -86.0567 240° Southwest 322 371 10,200 -1,200 Descending Memphis Center
12:30AM 36.4039 -86.1464 242° Southwest 294 338 9,300 -1,200 Descending Memphis Center
12:31AM 36.3733 -86.2281 245° Southwest 267 307 7,900 -1,380 Descending Memphis Center
12:32AM 36.3403 -86.3017 241° Southwest 256 295 6,600 -1,260 Descending Memphis Center
12:33AM 36.3114 -86.3728 243° Southwest 245 282 5,400 -1,440 Descending Memphis Center
12:34AM 36.2803 -86.4439 242° Southwest 245 282 3,800 -1,440 Descending Memphis Center
12:35AM 36.2511 -86.5147 243° Southwest 245 282 2,600 -900 Descending Memphis Center
12:36AM 36.2261 -86.5775 244° Southwest 225 259 2,100 -300 Descending Memphis Center
12:37AM 36.2025 -86.6250 238° Southwest 185 213 2,000 -300 Descending Memphis Center
12:38AM 36.1781 -86.6414 208° Southwest 137 158 1,500 -600 Descending Memphis Center
12:39AM 36.1492 -86.6531 198° South 116 133 900 -420 Descending Memphis Center
12:40AM 36.1161 -86.6700 202° Southwest 116 133 700 -240 Descending Memphis Center
12:42AM 36.1167 -86.6667 287° West  Level FlightAware Approximate
12:49AM 36.1245 -86.6782 287° West  Level Estimated
12:50AM 36.1245 -86.6782 287° West  Level Estimated
12:51AM 36.1245 -86.6782 287° West  Level Estimated
12:52AM 36.1245 -86.6782 287° West  Level Estimated
12:53AM 36.1245 -86.6782 287° West  Level Estimated
12:54AM 36.1245 -86.6782 287° West  Level Estimated
12:55AM 36.1245 -86.6782 287° West  Level Estimated